Time;durP1;ratioP1;P1;durP2;ratioP2;P2;SDS_P1;SDS_P2;PMS_P1;PMS_P2;Temp;Humidity;BMP_temperature;BMP_pressure;BME280_temperature;BME280_humidity;BME280_pressure;Samples;Min_cycle;Max_cycle;Signal;HPM_P1;HPM_P2
2022/10/05 00:00:16;;;;;;;10.82;6.97;;;;;;;;;;5035147;28;20200;-67
2022/10/05 00:02:42;;;;;;;10.93;7.25;;;;;;;;;;5036584;28;20780;-68
2022/10/05 00:05:29;;;;;;;10.95;6.82;;;;;;;;;;5032356;28;20186;-67
2022/10/05 00:08:00;;;;;;;10.30;6.82;;;;;;;;;;5032384;28;20178;-67
2022/10/05 00:10:27;;;;;;;8.98;7.13;;;;;;;;;;5040971;28;20255;-67
2022/10/05 00:12:53;;;;;;;14.07;7.18;;;;;;;;;;5035832;28;20495;-67
2022/10/05 00:15:21;;;;;;;11.25;7.50;;;;;;;;;;5041762;28;20737;-67
2022/10/05 00:17:46;;;;;;;11.73;7.55;;;;;;;;;;5036003;28;20649;-67
2022/10/05 00:20:23;;;;;;;12.65;7.88;;;;;;;;;;5049203;28;20243;-68
2022/10/05 00:22:57;;;;;;;12.88;8.10;;;;;;;;;;5033899;28;20297;-67
2022/10/05 00:25:23;;;;;;;11.20;7.63;;;;;;;;;;5032872;28;20178;-67
2022/10/05 00:27:57;;;;;;;12.65;7.85;;;;;;;;;;5038018;28;20268;-68
2022/10/05 00:30:25;;;;;;;13.80;7.38;;;;;;;;;;5035988;28;20217;-67
2022/10/05 00:32:51;;;;;;;11.98;7.18;;;;;;;;;;5041124;28;20208;-67
2022/10/05 00:35:18;;;;;;;13.38;7.80;;;;;;;;;;5033101;28;20174;-67
2022/10/05 00:37:45;;;;;;;14.75;8.20;;;;;;;;;;5034284;28;20209;-67
2022/10/05 00:40:32;;;;;;;14.98;8.27;;;;;;;;;;5028253;28;20208;-67
2022/10/05 00:43:28;;;;;;;9.48;7.22;;;;;;;;;;5037895;28;20526;-67
2022/10/05 00:46:07;;;;;;;14.70;8.23;;;;;;;;;;5033508;28;20216;-68
2022/10/05 00:49:03;;;;;;;11.40;8.23;;;;;;;;;;5037308;28;20195;-67
2022/10/05 00:51:31;;;;;;;11.52;7.93;;;;;;;;;;5038139;28;20180;-68
2022/10/05 00:54:02;;;;;;;13.27;7.78;;;;;;;;;;5033305;28;20545;-68
2022/10/05 00:56:38;;;;;;;10.05;7.60;;;;;;;;;;5029444;28;20275;-68
2022/10/05 00:59:25;;;;;;;11.13;7.95;;;;;;;;;;5038815;28;20186;-68
2022/10/05 01:02:05;;;;;;;12.75;7.43;;;;;;;;;;5029420;28;20190;-69
2022/10/05 01:04:45;;;;;;;12.10;7.63;;;;;;;;;;5032371;28;20173;-68
2022/10/05 01:07:16;;;;;;;9.93;7.80;;;;;;;;;;5028788;28;20186;-68
2022/10/05 01:10:08;;;;;;;13.18;7.45;;;;;;;;;;5029135;28;20644;-68
2022/10/05 01:12:50;;;;;;;14.60;8.45;;;;;;;;;;5034142;28;20208;-70
2022/10/05 01:15:45;;;;;;;11.23;7.53;;;;;;;;;;5029289;28;20213;-68
2022/10/05 01:18:19;;;;;;;11.80;7.20;;;;;;;;;;5032579;28;20560;-68
2022/10/05 01:21:01;;;;;;;11.75;8.38;;;;;;;;;;5038609;28;20179;-70
2022/10/05 01:23:37;;;;;;;13.55;8.35;;;;;;;;;;5041055;28;20189;-68
2022/10/05 01:26:20;;;;;;;16.15;8.80;;;;;;;;;;5045884;28;20704;-69
2022/10/05 01:28:53;;;;;;;12.00;7.57;;;;;;;;;;5037913;28;20207;-67
2022/10/05 01:31:25;;;;;;;11.02;8.27;;;;;;;;;;5038511;28;20225;-68
2022/10/05 01:34:09;;;;;;;13.10;8.38;;;;;;;;;;5028890;28;20200;-68
2022/10/05 01:36:59;;;;;;;13.68;8.43;;;;;;;;;;5029792;28;20563;-68
2022/10/05 01:39:42;;;;;;;14.63;8.63;;;;;;;;;;5040060;28;20182;-68
2022/10/05 01:42:18;;;;;;;14.25;7.85;;;;;;;;;;5026655;28;20642;-68
2022/10/05 01:44:48;;;;;;;13.50;8.15;;;;;;;;;;5033475;28;20186;-68
2022/10/05 01:47:25;;;;;;;13.18;8.25;;;;;;;;;;5026830;28;20622;-67
2022/10/05 01:50:06;;;;;;;11.80;7.97;;;;;;;;;;5036378;28;20184;-68
2022/10/05 01:52:44;;;;;;;12.13;8.20;;;;;;;;;;5038883;28;20255;-68
2022/10/05 01:55:31;;;;;;;13.93;8.48;;;;;;;;;;5028147;28;20186;-67
2022/10/05 01:58:09;;;;;;;12.45;8.18;;;;;;;;;;5042293;28;20208;-67
2022/10/05 02:00:47;;;;;;;13.25;8.48;;;;;;;;;;5037261;28;20204;-67
2022/10/05 02:03:18;;;;;;;14.85;8.65;;;;;;;;;;5033704;28;20452;-67
2022/10/05 02:05:55;;;;;;;14.05;8.07;;;;;;;;;;5044209;28;20664;-67
2022/10/05 02:08:33;;;;;;;13.02;8.65;;;;;;;;;;5035275;28;20174;-67
2022/10/05 02:11:06;;;;;;;12.43;8.38;;;;;;;;;;5028113;28;20618;-67
2022/10/05 02:13:38;;;;;;;15.20;9.20;;;;;;;;;;5033689;28;20532;-67
2022/10/05 02:16:14;;;;;;;13.82;8.88;;;;;;;;;;5026756;28;20185;-67
2022/10/05 02:18:49;;;;;;;15.35;8.77;;;;;;;;;;5030025;28;20303;-67
2022/10/05 02:21:14;;;;;;;15.73;9.02;;;;;;;;;;5030915;28;20533;-67
2022/10/05 02:23:43;;;;;;;16.67;9.13;;;;;;;;;;5042794;28;20193;-68
2022/10/05 02:26:10;;;;;;;11.98;8.27;;;;;;;;;;5043829;28;20638;-66
2022/10/05 02:28:46;;;;;;;13.88;9.05;;;;;;;;;;5034687;28;20621;-66
2022/10/05 02:31:18;;;;;;;14.02;9.60;;;;;;;;;;5040456;28;20221;-67
2022/10/05 02:33:44;;;;;;;13.80;9.25;;;;;;;;;;5034947;28;20640;-67
2022/10/05 02:36:35;;;;;;;16.00;9.27;;;;;;;;;;5041745;28;20188;-66
2022/10/05 02:39:23;;;;;;;18.52;10.00;;;;;;;;;;5038220;28;20181;-67
2022/10/05 02:41:57;;;;;;;14.73;9.75;;;;;;;;;;5043843;28;20640;-67
2022/10/05 02:44:30;;;;;;;18.60;10.10;;;;;;;;;;5039067;28;20186;-67
2022/10/05 02:47:09;;;;;;;12.73;9.43;;;;;;;;;;5030168;28;20265;-67
2022/10/05 02:49:43;;;;;;;15.85;10.60;;;;;;;;;;5031744;28;20272;-67
2022/10/05 02:52:17;;;;;;;15.32;10.38;;;;;;;;;;5043170;28;20277;-67
2022/10/05 02:54:48;;;;;;;16.85;10.55;;;;;;;;;;5043805;28;20223;-67
2022/10/05 02:57:31;;;;;;;17.60;10.80;;;;;;;;;;5034645;28;20213;-66
2022/10/05 03:00:19;;;;;;;16.98;10.93;;;;;;;;;;5035138;28;20673;-66
2022/10/05 03:03:02;;;;;;;16.17;10.15;;;;;;;;;;5032088;28;20260;-67
2022/10/05 03:05:33;;;;;;;16.58;11.05;;;;;;;;;;5036427;28;20240;-68
2022/10/05 03:08:23;;;;;;;16.52;11.32;;;;;;;;;;5044574;28;20204;-67
2022/10/05 03:11:20;;;;;;;17.40;11.73;;;;;;;;;;5033688;28;20197;-66
2022/10/05 03:13:51;;;;;;;14.98;10.35;;;;;;;;;;5034056;28;20193;-66
2022/10/05 03:16:33;;;;;;;16.48;10.85;;;;;;;;;;5036170;28;20257;-67
2022/10/05 03:19:21;;;;;;;18.08;11.25;;;;;;;;;;5033735;28;20182;-68
2022/10/05 03:22:07;;;;;;;14.80;10.43;;;;;;;;;;5037922;28;20527;-67
2022/10/05 03:24:59;;;;;;;17.40;11.18;;;;;;;;;;5043923;28;20182;-67
2022/10/05 03:27:38;;;;;;;18.08;12.10;;;;;;;;;;5038345;28;20245;-68
2022/10/05 03:30:11;;;;;;;17.52;12.10;;;;;;;;;;5036741;28;20229;-67
2022/10/05 03:32:52;;;;;;;16.65;12.13;;;;;;;;;;5029502;28;20221;-67
2022/10/05 03:35:27;;;;;;;17.13;12.13;;;;;;;;;;5035540;28;20657;-67
2022/10/05 03:38:06;;;;;;;17.52;12.25;;;;;;;;;;5032131;28;20240;-67
2022/10/05 03:40:55;;;;;;;19.27;11.93;;;;;;;;;;5032663;28;20550;-66
2022/10/05 03:43:47;;;;;;;19.35;12.77;;;;;;;;;;5036438;28;20174;-67
2022/10/05 03:46:29;;;;;;;19.25;12.45;;;;;;;;;;5046043;28;20193;-67
2022/10/05 03:49:06;;;;;;;16.30;10.68;;;;;;;;;;5039396;28;20197;-66
2022/10/05 03:51:35;;;;;;;15.38;11.90;;;;;;;;;;5033416;28;20650;-67
2022/10/05 03:54:18;;;;;;;18.00;12.20;;;;;;;;;;5033061;28;20186;-68
2022/10/05 03:56:57;;;;;;;17.23;12.15;;;;;;;;;;5037090;28;20205;-67
2022/10/05 03:59:33;;;;;;;18.50;12.75;;;;;;;;;;5030169;28;20197;-69
2022/10/05 04:02:11;;;;;;;20.02;13.30;;;;;;;;;;5035687;28;20190;-67
2022/10/05 04:04:47;;;;;;;17.30;11.88;;;;;;;;;;5033466;28;20186;-67
2022/10/05 04:07:50;;;;;;;21.77;12.50;;;;;;;;;;5045137;28;20633;-67
2022/10/05 04:10:20;;;;;;;19.10;13.38;;;;;;;;;;5036599;28;20180;-67
2022/10/05 04:13:01;;;;;;;17.30;12.05;;;;;;;;;;5038882;28;20269;-67
2022/10/05 04:15:43;;;;;;;17.23;12.57;;;;;;;;;;5031544;28;20719;-67
2022/10/05 04:18:22;;;;;;;18.50;12.90;;;;;;;;;;5029218;28;20201;-67
2022/10/05 04:20:56;;;;;;;22.92;14.13;;;;;;;;;;5038049;28;20189;-67
2022/10/05 04:23:27;;;;;;;16.38;12.15;;;;;;;;;;5031772;28;20643;-67
2022/10/05 04:26:03;;;;;;;16.17;11.48;;;;;;;;;;5033357;28;20618;-67
2022/10/05 04:28:57;;;;;;;21.63;13.50;;;;;;;;;;5031767;28;20218;-68
2022/10/05 04:31:47;;;;;;;20.08;12.38;;;;;;;;;;5035237;28;20692;-67
2022/10/05 04:34:30;;;;;;;21.17;13.02;;;;;;;;;;5034446;28;20251;-68
2022/10/05 04:37:02;;;;;;;20.95;12.90;;;;;;;;;;5037242;28;20209;-68
2022/10/05 04:39:59;;;;;;;19.30;13.40;;;;;;;;;;5037242;28;20182;-67
2022/10/05 04:42:33;;;;;;;17.85;12.25;;;;;;;;;;5021028;28;20205;-67
2022/10/05 04:45:21;;;;;;;21.40;13.10;;;;;;;;;;5035325;28;20189;-67
2022/10/05 04:48:21;;;;;;;17.02;12.25;;;;;;;;;;5039740;28;20189;-67
2022/10/05 04:50:56;;;;;;;16.05;11.48;;;;;;;;;;5034298;28;20209;-66
2022/10/05 04:53:30;;;;;;;20.08;11.45;;;;;;;;;;5044018;28;20711;-67
2022/10/05 04:56:17;;;;;;;17.15;12.50;;;;;;;;;;5047873;28;20181;-67
2022/10/05 04:59:15;;;;;;;18.85;12.85;;;;;;;;;;5040405;28;20247;-68
2022/10/05 05:02:02;;;;;;;20.23;12.60;;;;;;;;;;5041738;28;20387;-67
2022/10/05 05:04:42;;;;;;;20.27;12.95;;;;;;;;;;5032814;28;20182;-67
2022/10/05 05:07:14;;;;;;;17.98;12.68;;;;;;;;;;5030342;28;20188;-67
2022/10/05 05:09:57;;;;;;;17.77;12.05;;;;;;;;;;5032215;28;20201;-67
2022/10/05 05:12:33;;;;;;;15.80;11.52;;;;;;;;;;5029338;28;20218;-67
2022/10/05 05:15:20;;;;;;;19.45;12.63;;;;;;;;;;5040557;28;20185;-68
2022/10/05 05:17:51;;;;;;;18.40;12.43;;;;;;;;;;5039817;28;20209;-68
2022/10/05 05:20:40;;;;;;;20.23;11.57;;;;;;;;;;5030851;28;20383;-67
2022/10/05 05:23:37;;;;;;;19.02;11.65;;;;;;;;;;5025868;28;20227;-68
2022/10/05 05:26:13;;;;;;;16.10;11.48;;;;;;;;;;5033196;28;20185;-68
2022/10/05 05:28:52;;;;;;;20.98;12.27;;;;;;;;;;5030371;28;20185;-68
2022/10/05 05:31:27;;;;;;;20.63;12.27;;;;;;;;;;5030840;28;20312;-67
2022/10/05 05:34:20;;;;;;;17.05;11.57;;;;;;;;;;5028380;28;20516;-68
2022/10/05 05:37:05;;;;;;;17.15;11.82;;;;;;;;;;5032807;28;20204;-67
2022/10/05 05:39:44;;;;;;;19.27;11.02;;;;;;;;;;5031397;28;20178;-67
2022/10/05 05:42:33;;;;;;;19.98;11.10;;;;;;;;;;5034867;28;20311;-67
2022/10/05 05:45:18;;;;;;;14.52;10.57;;;;;;;;;;5031937;28;20173;-67
2022/10/05 05:47:52;;;;;;;17.92;10.30;;;;;;;;;;5028715;28;20201;-67
2022/10/05 05:50:32;;;;;;;15.18;9.95;;;;;;;;;;5031117;28;20177;-67
2022/10/05 05:53:05;;;;;;;18.80;11.23;;;;;;;;;;5032670;28;20211;-68
2022/10/05 05:55:37;;;;;;;17.63;11.18;;;;;;;;;;5028984;28;20269;-67
2022/10/05 05:58:41;;;;;;;15.18;10.77;;;;;;;;;;5028196;28;20197;-67
2022/10/05 06:01:20;;;;;;;15.20;10.80;;;;;;;;;;5027836;28;20603;-68
2022/10/05 06:03:51;;;;;;;16.70;10.30;;;;;;;;;;5029748;28;20265;-67
2022/10/05 06:06:17;;;;;;;18.40;9.98;;;;;;;;;;5028967;28;20182;-67
2022/10/05 06:08:45;;;;;;;16.30;10.55;;;;;;;;;;5029292;28;20242;-67
2022/10/05 06:11:33;;;;;;;15.25;10.00;;;;;;;;;;5027283;28;20186;-67
2022/10/05 06:14:07;;;;;;;14.50;9.82;;;;;;;;;;5029211;28;20228;-67
2022/10/05 06:16:39;;;;;;;12.80;9.68;;;;;;;;;;5030494;28;20621;-67
2022/10/05 06:19:11;;;;;;;15.13;9.90;;;;;;;;;;5029927;28;20178;-68
2022/10/05 06:22:01;;;;;;;17.90;10.90;;;;;;;;;;5043800;28;20322;-67
2022/10/05 06:24:46;;;;;;;17.23;10.25;;;;;;;;;;5027018;28;20200;-67
2022/10/05 06:27:46;;;;;;;13.38;10.18;;;;;;;;;;5028007;28;20308;-67
2022/10/05 06:30:14;;;;;;;12.10;9.40;;;;;;;;;;4331404;28;10000685;-67
2022/10/05 06:33:12;;;;;;;15.80;11.38;;;;;;;;;;5027975;28;20206;-67
2022/10/05 06:35:41;;;;;;;16.38;10.10;;;;;;;;;;5031325;28;20649;-67
2022/10/05 06:38:24;;;;;;;14.60;9.95;;;;;;;;;;5038191;28;20240;-67
2022/10/05 06:41:11;;;;;;;16.25;10.10;;;;;;;;;;5024352;28;20250;-66
2022/10/05 06:43:49;;;;;;;15.35;9.50;;;;;;;;;;5025657;28;20186;-67
2022/10/05 06:46:26;;;;;;;12.38;10.13;;;;;;;;;;5025350;28;20186;-67
2022/10/05 06:49:19;;;;;;;13.15;9.90;;;;;;;;;;5027424;28;20569;-69
2022/10/05 06:51:54;;;;;;;14.52;9.05;;;;;;;;;;5027338;28;20467;-67
2022/10/05 06:54:43;;;;;;;13.05;9.00;;;;;;;;;;5033610;28;20648;-67
2022/10/05 06:57:14;;;;;;;12.63;9.05;;;;;;;;;;5027506;28;20662;-67
2022/10/05 06:59:45;;;;;;;11.20;8.30;;;;;;;;;;5032935;28;20185;-66
2022/10/05 07:02:36;;;;;;;13.05;8.52;;;;;;;;;;5047899;28;20303;-67
2022/10/05 07:05:38;;;;;;;11.95;8.20;;;;;;;;;;5035859;28;20191;-66
2022/10/05 07:08:16;;;;;;;15.13;9.40;;;;;;;;;;5032749;28;20239;-66
2022/10/05 07:10:56;;;;;;;16.60;8.32;;;;;;;;;;5050062;28;20263;-67
2022/10/05 07:13:50;;;;;;;10.13;8.25;;;;;;;;;;5049587;28;20182;-71
2022/10/05 07:16:54;;;;;;;12.02;8.75;;;;;;;;;;5034229;28;20193;-66
2022/10/05 07:19:56;;;;;;;12.25;7.93;;;;;;;;;;5029832;28;20182;-66
2022/10/05 07:22:47;;;;;;;10.73;8.45;;;;;;;;;;5044832;28;20276;-67
2022/10/05 07:25:29;;;;;;;13.30;7.88;;;;;;;;;;5042425;28;20546;-68
2022/10/05 07:28:05;;;;;;;10.07;7.07;;;;;;;;;;5039410;28;20181;-67
2022/10/05 07:30:40;;;;;;;10.00;6.13;;;;;;;;;;5045418;28;20226;-67
2022/10/05 07:33:31;;;;;;;10.68;7.40;;;;;;;;;;5039362;28;20756;-67
2022/10/05 07:39:04;;;;;;;8.25;6.13;;;;;;;;;;5035929;28;20254;-68
2022/10/05 07:41:40;;;;;;;8.05;6.80;;;;;;;;;;5043018;28;20289;-68
2022/10/05 07:44:37;;;;;;;7.60;6.10;;;;;;;;;;5041122;28;20678;-67
2022/10/05 07:47:27;;;;;;;8.75;6.30;;;;;;;;;;5029086;28;20182;-66
2022/10/05 07:49:58;;;;;;;7.65;5.88;;;;;;;;;;5038567;28;20186;-68
2022/10/05 07:52:35;;;;;;;7.72;6.22;;;;;;;;;;5039425;28;20185;-67
2022/10/05 07:55:19;;;;;;;11.57;5.80;;;;;;;;;;5038911;28;20196;-68
2022/10/05 07:57:54;;;;;;;8.63;5.50;;;;;;;;;;5030115;28;20217;-67
2022/10/05 08:00:22;;;;;;;8.60;5.28;;;;;;;;;;5041245;28;20177;-68
2022/10/05 08:03:04;;;;;;;8.80;5.55;;;;;;;;;;5034609;28;20185;-68
2022/10/05 08:05:32;;;;;;;5.82;4.68;;;;;;;;;;5035130;28;20190;-66
2022/10/05 08:08:29;;;;;;;5.93;4.93;;;;;;;;;;5031017;28;20178;-67
2022/10/05 08:11:12;;;;;;;5.03;4.30;;;;;;;;;;5035525;28;20197;-69
2022/10/05 08:14:01;;;;;;;8.75;4.63;;;;;;;;;;5035863;28;20204;-67
2022/10/05 08:16:32;;;;;;;6.85;4.13;;;;;;;;;;5031280;28;20181;-69
2022/10/05 08:19:07;;;;;;;6.10;4.65;;;;;;;;;;5031095;28;20208;-67
2022/10/05 08:21:42;;;;;;;6.93;3.92;;;;;;;;;;5033575;28;20178;-67
2022/10/05 08:24:19;;;;;;;7.90;4.43;;;;;;;;;;5040648;28;20185;-68
2022/10/05 08:26:59;;;;;;;5.72;4.38;;;;;;;;;;5036629;28;20339;-68
2022/10/05 08:29:28;;;;;;;8.00;3.90;;;;;;;;;;5030569;28;20177;-68
2022/10/05 08:32:02;;;;;;;4.57;3.80;;;;;;;;;;5032513;28;20243;-66
2022/10/05 08:34:50;;;;;;;7.00;4.20;;;;;;;;;;5045545;28;20180;-67
2022/10/05 08:37:32;;;;;;;5.05;4.18;;;;;;;;;;5048159;28;20198;-68
2022/10/05 08:40:21;;;;;;;8.05;4.68;;;;;;;;;;5044292;28;20197;-69
2022/10/05 08:43:10;;;;;;;6.63;4.00;;;;;;;;;;5039333;28;20645;-69
2022/10/05 08:45:49;;;;;;;5.18;4.28;;;;;;;;;;5048236;28;20178;-67
2022/10/05 08:48:59;;;;;;;5.82;4.35;;;;;;;;;;5040858;28;20174;-67
2022/10/05 08:51:52;;;;;;;6.85;4.43;;;;;;;;;;5040141;28;20192;-67
2022/10/05 08:54:37;;;;;;;5.75;4.60;;;;;;;;;;5039904;28;20197;-68
2022/10/05 08:57:20;;;;;;;5.35;4.57;;;;;;;;;;5041460;28;20209;-66
2022/10/05 09:00:02;;;;;;;7.57;4.70;;;;;;;;;;5035577;28;20189;-67
2022/10/05 09:02:39;;;;;;;5.28;4.40;;;;;;;;;;5049950;28;20570;-67
2022/10/05 09:05:16;;;;;;;7.95;4.32;;;;;;;;;;5044456;28;20268;-67
2022/10/05 09:07:54;;;;;;;7.35;3.97;;;;;;;;;;5036226;28;20240;-67
2022/10/05 09:10:44;;;;;;;5.20;3.92;;;;;;;;;;5029797;28;20223;-70
2022/10/05 09:13:21;;;;;;;6.13;4.30;;;;;;;;;;5045987;28;20185;-67
2022/10/05 09:16:07;;;;;;;6.13;4.80;;;;;;;;;;5039490;28;20231;-68
2022/10/05 09:19:13;;;;;;;6.32;3.67;;;;;;;;;;5032274;28;20901;-68
2022/10/05 09:21:41;;;;;;;5.88;3.97;;;;;;;;;;5043380;28;21799;-67
2022/10/05 09:24:24;;;;;;;6.72;3.50;;;;;;;;;;5029516;28;20193;-69
2022/10/05 09:27:12;;;;;;;5.53;3.55;;;;;;;;;;5042179;28;20184;-67
2022/10/05 09:30:15;;;;;;;4.93;3.38;;;;;;;;;;5030611;28;20205;-71
2022/10/05 09:33:05;;;;;;;4.72;3.20;;;;;;;;;;5035667;28;20216;-67
2022/10/05 09:36:01;;;;;;;3.83;3.10;;;;;;;;;;5034801;28;20315;-67
2022/10/05 09:39:04;;;;;;;7.53;3.45;;;;;;;;;;5032240;28;20613;-72
2022/10/05 09:41:48;;;;;;;6.10;3.05;;;;;;;;;;5031507;28;20196;-66
2022/10/05 09:45:00;;;;;;;4.20;2.88;;;;;;;;;;5029317;28;20182;-67
2022/10/05 09:48:08;;;;;;;7.75;3.28;;;;;;;;;;5033857;28;20280;-68
2022/10/05 09:50:40;;;;;;;8.65;3.55;;;;;;;;;;5042596;28;20196;-68
2022/10/05 09:53:39;;;;;;;5.65;3.50;;;;;;;;;;5041494;28;20186;-68
2022/10/05 09:56:18;;;;;;;6.18;4.00;;;;;;;;;;5028321;28;20237;-68
2022/10/05 09:59:17;;;;;;;5.80;3.65;;;;;;;;;;5042647;28;20181;-69
2022/10/05 10:02:04;;;;;;;5.25;3.78;;;;;;;;;;5028287;28;20190;-69
2022/10/05 10:05:04;;;;;;;5.93;3.60;;;;;;;;;;5038765;28;20197;-68
2022/10/05 10:07:50;;;;;;;7.55;3.50;;;;;;;;;;5029172;28;20182;-68
2022/10/05 10:10:43;;;;;;;6.43;3.88;;;;;;;;;;5028946;28;20232;-68
2022/10/05 10:13:38;;;;;;;5.75;3.88;;;;;;;;;;5030012;28;20212;-68
2022/10/05 10:16:37;;;;;;;7.70;4.00;;;;;;;;;;5033053;28;20182;-70
2022/10/05 10:19:18;;;;;;;5.43;3.83;;;;;;;;;;5028561;28;20214;-69
2022/10/05 10:22:07;;;;;;;5.72;4.03;;;;;;;;;;5030585;28;20178;-68
2022/10/05 10:24:54;;;;;;;8.20;4.45;;;;;;;;;;5034082;28;20232;-68
2022/10/05 10:27:59;;;;;;;6.03;4.20;;;;;;;;;;5026859;28;20438;-70
2022/10/05 10:30:39;;;;;;;8.70;3.90;;;;;;;;;;5044114;28;20212;-68
2022/10/05 10:33:32;;;;;;;4.93;3.75;;;;;;;;;;5042279;28;20212;-68
2022/10/05 10:36:41;;;;;;;4.60;4.07;;;;;;;;;;5035678;28;20197;-68
2022/10/05 10:39:19;;;;;;;5.47;3.78;;;;;;;;;;4999070;28;20575;-68
2022/10/05 10:42:12;;;;;;;8.05;4.07;;;;;;;;;;5031108;28;20185;-68
2022/10/05 10:45:04;;;;;;;6.00;3.53;;;;;;;;;;5034132;28;20650;-68
2022/10/05 10:47:44;;;;;;;7.75;3.60;;;;;;;;;;5034776;28;20557;-69
2022/10/05 10:50:45;;;;;;;4.47;3.78;;;;;;;;;;5037393;28;20238;-68
2022/10/05 10:53:44;;;;;;;5.85;3.85;;;;;;;;;;5035827;28;20182;-69
2022/10/05 10:56:17;;;;;;;5.63;3.40;;;;;;;;;;5033806;28;20186;-72
2022/10/05 10:59:27;;;;;;;8.00;3.80;;;;;;;;;;5034528;28;20512;-68
2022/10/05 11:01:55;;;;;;;5.60;3.70;;;;;;;;;;5033087;28;20217;-68
2022/10/05 11:04:46;;;;;;;4.63;3.58;;;;;;;;;;5032890;28;20178;-69
2022/10/05 11:07:24;;;;;;;5.63;3.47;;;;;;;;;;5033219;28;20193;-69
2022/10/05 11:10:28;;;;;;;4.53;3.60;;;;;;;;;;5033289;28;20239;-71
2022/10/05 11:13:32;;;;;;;5.78;3.13;;;;;;;;;;5030882;28;20748;-70
2022/10/05 11:16:05;;;;;;;5.80;3.83;;;;;;;;;;5032235;28;20563;-66
2022/10/05 11:19:25;;;;;;;4.93;2.95;;;;;;;;;;5031553;28;20586;-67
2022/10/05 11:22:06;;;;;;;4.90;3.30;;;;;;;;;;5004508;28;20270;-66
2022/10/05 11:24:46;;;;;;;4.53;3.25;;;;;;;;;;5029431;28;20331;-67
2022/10/05 11:27:22;;;;;;;4.75;3.33;;;;;;;;;;5032362;28;20185;-66
2022/10/05 11:30:18;;;;;;;3.10;2.70;;;;;;;;;;5032060;28;20213;-68
2022/10/05 11:33:15;;;;;;;5.82;3.33;;;;;;;;;;5031522;28;20351;-67
2022/10/05 11:35:55;;;;;;;5.55;2.83;;;;;;;;;;5032936;28;20176;-67
2022/10/05 11:38:47;;;;;;;6.15;3.00;;;;;;;;;;5032104;28;20198;-68
2022/10/05 11:41:32;;;;;;;9.05;3.35;;;;;;;;;;5032786;28;20174;-72
2022/10/05 11:44:22;;;;;;;4.82;2.47;;;;;;;;;;5034044;28;20687;-67
2022/10/05 11:47:23;;;;;;;4.78;2.70;;;;;;;;;;5034477;28;20599;-68
2022/10/05 11:49:56;;;;;;;6.43;3.03;;;;;;;;;;5030699;28;20186;-68
2022/10/05 11:52:29;;;;;;;5.65;2.45;;;;;;;;;;5035713;28;20193;-71
2022/10/05 11:55:13;;;;;;;5.43;2.45;;;;;;;;;;5041754;28;20253;-67
2022/10/05 11:57:49;;;;;;;7.30;2.63;;;;;;;;;;5046388;28;20197;-68
2022/10/05 12:00:28;;;;;;;5.05;2.40;;;;;;;;;;5030840;28;20190;-67
2022/10/05 12:03:18;;;;;;;4.28;2.75;;;;;;;;;;5035346;28;20169;-67
2022/10/05 12:06:00;;;;;;;4.50;2.40;;;;;;;;;;5036607;28;20182;-68
2022/10/05 12:08:37;;;;;;;5.25;2.40;;;;;;;;;;5031879;28;20255;-67
2022/10/05 12:11:26;;;;;;;7.43;2.30;;;;;;;;;;5030250;28;20280;-71
2022/10/05 12:14:07;;;;;;;3.13;2.22;;;;;;;;;;5030935;28;20222;-67
2022/10/05 12:16:44;;;;;;;4.13;2.22;;;;;;;;;;5033949;28;20279;-68
2022/10/05 12:19:26;;;;;;;3.40;1.80;;;;;;;;;;5030122;28;20169;-72
2022/10/05 12:22:14;;;;;;;4.85;2.20;;;;;;;;;;5032178;28;20338;-69
2022/10/05 12:25:04;;;;;;;5.25;2.83;;;;;;;;;;5034172;28;20705;-68
2022/10/05 12:27:37;;;;;;;3.33;2.17;;;;;;;;;;5034184;28;20626;-67
2022/10/05 12:30:14;;;;;;;3.88;1.77;;;;;;;;;;5030946;28;20230;-70
2022/10/05 12:32:53;;;;;;;4.55;2.42;;;;;;;;;;5030384;28;20198;-70
2022/10/05 12:35:30;;;;;;;7.20;2.70;;;;;;;;;;5029283;28;20221;-68
2022/10/05 12:38:11;;;;;;;4.50;2.47;;;;;;;;;;5029656;28;20272;-68
2022/10/05 12:40:45;;;;;;;6.43;2.60;;;;;;;;;;5029343;28;20182;-67
2022/10/05 12:43:37;;;;;;;4.50;2.60;;;;;;;;;;5032491;28;20306;-67
2022/10/05 12:46:16;;;;;;;4.97;2.17;;;;;;;;;;5036812;28;20294;-69
2022/10/05 12:48:56;;;;;;;4.57;1.98;;;;;;;;;;5037303;28;20196;-68
2022/10/05 12:51:39;;;;;;;4.28;2.38;;;;;;;;;;5037112;28;20189;-72
2022/10/05 12:54:29;;;;;;;2.47;2.10;;;;;;;;;;5040992;28;20182;-69
2022/10/05 12:57:08;;;;;;;5.07;2.35;;;;;;;;;;5042132;28;20736;-69
2022/10/05 12:59:41;;;;;;;5.78;2.10;;;;;;;;;;5032079;28;20181;-69
2022/10/05 13:02:22;;;;;;;4.95;2.15;;;;;;;;;;5030984;28;20664;-68
2022/10/05 13:05:09;;;;;;;2.63;2.03;;;;;;;;;;5040837;28;20188;-68
2022/10/05 13:08:01;;;;;;;3.97;2.15;;;;;;;;;;5042049;28;20269;-68
2022/10/05 13:10:45;;;;;;;4.97;2.20;;;;;;;;;;5046304;28;20181;-67
2022/10/05 13:13:41;;;;;;;5.63;2.33;;;;;;;;;;5034487;28;20265;-68
2022/10/05 13:16:31;;;;;;;3.15;2.00;;;;;;;;;;5038036;28;20702;-68
2022/10/05 13:19:10;;;;;;;2.40;2.03;;;;;;;;;;5036281;28;20192;-67
2022/10/05 13:21:46;;;;;;;3.67;1.90;;;;;;;;;;5037236;28;20190;-68
2022/10/05 13:24:36;;;;;;;5.25;1.80;;;;;;;;;;5032454;28;20251;-70
2022/10/05 13:27:12;;;;;;;2.63;2.00;;;;;;;;;;5029993;28;20182;-69
2022/10/05 13:29:50;;;;;;;2.60;2.03;;;;;;;;;;5029511;28;20630;-68
2022/10/05 13:32:21;;;;;;;2.78;2.00;;;;;;;;;;5031384;28;20267;-68
2022/10/05 13:35:15;;;;;;;2.28;2.03;;;;;;;;;;5030599;28;20186;-68
2022/10/05 13:38:22;;;;;;;3.63;2.10;;;;;;;;;;5028690;28;20585;-73
2022/10/05 13:41:07;;;;;;;2.67;1.95;;;;;;;;;;5027726;28;20185;-68
2022/10/05 13:43:38;;;;;;;5.30;2.03;;;;;;;;;;5029806;28;20649;-68
2022/10/05 13:46:15;;;;;;;4.40;2.00;;;;;;;;;;5031568;28;20189;-68
2022/10/05 13:48:58;;;;;;;4.40;2.15;;;;;;;;;;5028877;28;20186;-68
2022/10/05 13:51:34;;;;;;;6.28;1.83;;;;;;;;;;5032355;28;20241;-68
2022/10/05 13:54:06;;;;;;;3.95;2.00;;;;;;;;;;5038597;28;20236;-68
2022/10/05 13:56:35;;;;;;;7.75;2.03;;;;;;;;;;5028358;28;20190;-67
2022/10/05 13:59:04;;;;;;;5.07;2.35;;;;;;;;;;4334098;28;10000723;-68
2022/10/05 14:01:51;;;;;;;3.60;1.98;;;;;;;;;;5033029;28;20177;-68
2022/10/05 14:04:23;;;;;;;4.32;2.30;;;;;;;;;;5030205;28;20189;-68
2022/10/05 14:06:51;;;;;;;2.35;1.98;;;;;;;;;;5031775;28;20216;-68
2022/10/05 14:09:20;;;;;;;4.32;2.03;;;;;;;;;;5044896;28;20189;-67
2022/10/05 14:11:48;;;;;;;2.90;2.22;;;;;;;;;;5037370;28;20177;-68
2022/10/05 14:14:22;;;;;;;1.77;1.55;;;;;;;;;;5034985;28;20745;-68
2022/10/05 14:16:57;;;;;;;4.72;1.90;;;;;;;;;;5033062;28;20212;-67
2022/10/05 14:19:22;;;;;;;3.40;1.95;;;;;;;;;;5033468;28;20280;-68
2022/10/05 14:21:57;;;;;;;3.10;2.03;;;;;;;;;;5026443;28;20257;-69
2022/10/05 14:24:33;;;;;;;4.43;1.88;;;;;;;;;;5033662;28;20188;-67
2022/10/05 14:26:58;;;;;;;3.40;2.00;;;;;;;;;;5039339;28;20235;-68
2022/10/05 14:29:33;;;;;;;2.97;1.73;;;;;;;;;;5037002;28;20657;-67
2022/10/05 14:32:10;;;;;;;3.58;2.20;;;;;;;;;;5039826;28;20213;-68
2022/10/05 14:34:38;;;;;;;7.15;2.30;;;;;;;;;;5037441;28;20200;-68
2022/10/05 14:37:19;;;;;;;6.38;2.20;;;;;;;;;;5025303;28;20564;-68
2022/10/05 14:39:47;;;;;;;6.53;2.15;;;;;;;;;;5027135;28;20189;-69
2022/10/05 14:42:16;;;;;;;2.00;1.80;;;;;;;;;;5025904;28;20177;-67
2022/10/05 14:44:42;;;;;;;6.75;2.33;;;;;;;;;;5025283;28;20637;-67
2022/10/05 14:47:22;;;;;;;4.25;1.92;;;;;;;;;;5033496;28;20650;-68
2022/10/05 14:50:16;;;;;;;4.80;1.90;;;;;;;;;;5033113;28;20536;-68
2022/10/05 14:52:58;;;;;;;4.80;1.90;;;;;;;;;;5029563;28;20189;-68
2022/10/05 14:55:45;;;;;;;6.00;2.30;;;;;;;;;;5024589;28;20186;-68
2022/10/05 14:58:40;;;;;;;2.97;1.90;;;;;;;;;;5031883;28;20259;-68
2022/10/05 15:01:16;;;;;;;4.70;2.22;;;;;;;;;;5027821;28;20201;-67
2022/10/05 15:03:54;;;;;;;2.75;1.90;;;;;;;;;;5033774;28;20194;-67
2022/10/05 15:06:35;;;;;;;5.53;2.05;;;;;;;;;;5039609;28;20752;-67
2022/10/05 15:09:00;;;;;;;3.53;1.80;;;;;;;;;;5030446;28;20178;-67
2022/10/05 15:11:45;;;;;;;4.22;1.77;;;;;;;;;;5026717;28;20544;-68
2022/10/05 15:14:17;;;;;;;3.22;1.88;;;;;;;;;;5030205;28;20253;-68
2022/10/05 15:16:43;;;;;;;3.67;2.08;;;;;;;;;;5025457;28;20186;-67
2022/10/05 15:19:24;;;;;;;2.85;1.65;;;;;;;;;;5027334;28;20658;-68
2022/10/05 15:22:06;;;;;;;2.67;1.77;;;;;;;;;;5020759;28;21644;-68
2022/10/05 15:24:47;;;;;;;4.05;1.98;;;;;;;;;;5024759;28;20533;-67
2022/10/05 15:27:38;;;;;;;5.03;2.13;;;;;;;;;;5033758;28;20212;-68
2022/10/05 15:30:10;;;;;;;5.97;2.20;;;;;;;;;;5040949;28;20259;-68
2022/10/05 15:32:44;;;;;;;2.28;1.90;;;;;;;;;;5034524;28;20206;-68
2022/10/05 15:35:54;;;;;;;5.30;2.22;;;;;;;;;;5031285;28;20189;-68
2022/10/05 15:38:25;;;;;;;3.75;1.50;;;;;;;;;;5028186;28;20198;-68
2022/10/05 15:40:57;;;;;;;5.78;1.48;;;;;;;;;;5031937;28;20186;-69
2022/10/05 15:43:25;;;;;;;5.38;1.40;;;;;;;;;;5031526;28;20178;-68
2022/10/05 15:46:16;;;;;;;4.18;1.27;;;;;;;;;;5028113;28;20377;-69
2022/10/05 15:48:48;;;;;;;4.18;1.77;;;;;;;;;;5028001;28;20174;-69
2022/10/05 15:51:27;;;;;;;3.60;1.30;;;;;;;;;;5031257;28;20518;-70
2022/10/05 15:57:03;;;;;;;3.53;1.77;;;;;;;;;;5029820;28;20790;-68
2022/10/05 16:00:06;;;;;;;5.25;2.35;;;;;;;;;;5030125;28;20615;-70
2022/10/05 16:02:53;;;;;;;3.42;1.58;;;;;;;;;;5024706;28;20263;-68